createdAt,value
2023-02-22T00:00:00.193Z,999.9
2023-02-22T00:05:00.159Z,999.96
2023-02-22T00:10:00.172Z,999.87
2023-02-22T00:15:00.136Z,999.87
2023-02-22T00:20:00.144Z,999.81
2023-02-22T00:25:00.171Z,999.82
2023-02-22T00:30:00.169Z,999.72
2023-02-22T00:35:00.163Z,999.78
2023-02-22T00:40:00.148Z,999.83
2023-02-22T00:45:00.149Z,999.76
2023-02-22T00:50:00.126Z,999.73
2023-02-22T00:55:00.140Z,999.73
2023-02-22T01:00:00.197Z,999.72
2023-02-22T01:05:00.151Z,999.69
2023-02-22T01:10:00.160Z,999.72
2023-02-22T01:15:00.116Z,999.67
2023-02-22T01:20:00.150Z,999.68
2023-02-22T01:25:00.119Z,999.68
2023-02-22T01:30:00.130Z,999.65
2023-02-22T01:35:00.156Z,999.65
2023-02-22T01:40:00.106Z,999.61
2023-02-22T01:45:00.156Z,999.53
2023-02-22T01:50:00.105Z,999.52
2023-02-22T01:55:00.119Z,999.47
2023-02-22T02:00:00.269Z,999.39
2023-02-22T02:05:00.257Z,999.42
2023-02-22T02:10:00.137Z,999.41
2023-02-22T02:15:00.108Z,999.41
2023-02-22T02:20:00.145Z,999.44
2023-02-22T02:25:00.125Z,999.36
2023-02-22T02:30:00.157Z,999.35
2023-02-22T02:35:00.106Z,999.32
2023-02-22T02:40:00.226Z,999.34
2023-02-22T02:45:00.165Z,999.28
2023-02-22T02:50:00.142Z,999.18
2023-02-22T02:55:00.173Z,999.17
2023-02-22T03:00:00.186Z,999.17
2023-02-22T03:05:00.135Z,999.15
2023-02-22T03:10:00.138Z,999.12
2023-02-22T03:15:00.170Z,999.01
2023-02-22T03:20:00.124Z,999.03
2023-02-22T03:25:00.133Z,999.02
2023-02-22T03:30:00.172Z,999.08
2023-02-22T03:35:00.123Z,998.97
2023-02-22T03:40:00.141Z,998.91
2023-02-22T03:45:00.161Z,998.94
2023-02-22T03:50:00.123Z,998.91
2023-02-22T03:55:00.156Z,998.91
2023-02-22T04:00:00.194Z,998.96
2023-02-22T04:05:00.247Z,998.93
2023-02-22T04:10:00.136Z,998.88
2023-02-22T04:15:00.138Z,998.92
2023-02-22T04:20:00.144Z,998.92
2023-02-22T04:25:00.141Z,998.85
2023-02-22T04:30:00.178Z,998.21
2023-02-22T04:35:00.121Z,998.21
2023-02-22T04:40:00.122Z,998.21
2023-02-22T04:45:00.132Z,998.26
2023-02-22T04:50:00.121Z,998.21
2023-02-22T04:55:00.117Z,998.07
2023-02-22T05:00:00.171Z,997.97
2023-02-22T05:05:00.231Z,997.97
2023-02-22T05:10:00.122Z,997.96
2023-02-22T05:15:00.180Z,997.91
2023-02-22T05:20:00.137Z,997.9
2023-02-22T05:25:00.161Z,997.94
2023-02-22T05:30:00.195Z,997.96
2023-02-22T05:35:00.124Z,997.93
2023-02-22T05:40:00.133Z,997.97
2023-02-22T05:45:00.208Z,998.01
2023-02-22T05:50:00.149Z,997.9
2023-02-22T05:55:00.129Z,997.97
2023-02-22T06:00:00.163Z,998.01
2023-02-22T06:05:00.147Z,997.97
2023-02-22T06:10:00.115Z,997.95
2023-02-22T06:15:00.149Z,997.94
2023-02-22T06:20:00.198Z,997.92
2023-02-22T06:25:00.130Z,997.91
2023-02-22T06:30:00.134Z,997.97
2023-02-22T06:35:00.109Z,998.01
2023-02-22T06:40:04.796Z,998.07
2023-02-22T06:45:00.183Z,998.09
2023-02-22T06:50:00.126Z,998.19
2023-02-22T06:55:00.183Z,998.19
2023-02-22T07:00:00.177Z,998.22
2023-02-22T07:05:00.132Z,998.24
2023-02-22T07:10:00.133Z,998.26
2023-02-22T07:15:00.124Z,998.3
2023-02-22T07:20:00.154Z,998.35
2023-02-22T07:25:00.152Z,998.28
2023-02-22T07:30:00.138Z,998.33
2023-02-22T07:35:00.126Z,998.33
2023-02-22T07:40:00.129Z,998.34
2023-02-22T07:45:00.154Z,998.3
2023-02-22T07:50:00.159Z,998.3
2023-02-22T07:55:00.117Z,998.26
2023-02-22T08:00:00.142Z,998.26
2023-02-22T08:05:00.738Z,998.27
2023-02-22T08:10:00.193Z,998.22
2023-02-22T08:15:00.171Z,998.29
2023-02-22T08:20:00.131Z,998.34
2023-02-22T08:25:00.224Z,998.25
2023-02-22T08:30:00.159Z,998.26
2023-02-22T08:35:00.155Z,998.25
2023-02-22T08:40:00.163Z,998.19
2023-02-22T08:45:00.162Z,998.24
2023-02-22T08:50:00.172Z,998.11
2023-02-22T08:55:00.135Z,998.13
2023-02-22T09:00:00.178Z,998.2
2023-02-22T09:05:00.152Z,998.28
2023-02-22T09:10:00.154Z,998.28
2023-02-22T09:15:00.153Z,998.12
2023-02-22T09:20:00.129Z,998.08
2023-02-22T09:25:02.540Z,998.01
2023-02-22T09:30:00.129Z,998.12
2023-02-22T09:35:00.110Z,998.25
2023-02-22T09:40:00.206Z,998.2
2023-02-22T09:45:00.156Z,998.12
2023-02-22T09:50:00.124Z,998.17
2023-02-22T09:55:00.101Z,998.2
2023-02-22T10:00:00.202Z,998.06
2023-02-22T10:05:00.257Z,997.87
2023-02-22T10:10:00.137Z,997.94
2023-02-22T10:15:00.126Z,997.88
2023-02-22T10:20:00.140Z,997.87
2023-02-22T10:25:00.147Z,997.83
2023-02-22T10:30:00.159Z,997.73
2023-02-22T10:35:00.121Z,997.8
2023-02-22T10:40:00.122Z,997.71
2023-02-22T10:45:00.154Z,997.69
2023-02-22T10:50:00.115Z,997.63
2023-02-22T10:55:13.992Z,997.59
2023-02-22T11:00:00.126Z,997.6
2023-02-22T11:05:00.188Z,997.51
2023-02-22T11:10:00.143Z,997.52
2023-02-22T11:15:00.106Z,997.43
2023-02-22T11:20:00.225Z,997.36
2023-02-22T11:25:00.145Z,997.33
2023-02-22T11:30:00.153Z,997.33
2023-02-22T11:35:08.568Z,997.3
2023-02-22T11:40:00.120Z,997.26
2023-02-22T11:45:00.125Z,997.27
2023-02-22T11:50:00.099Z,997.07
2023-02-22T11:55:00.120Z,997
2023-02-22T12:00:00.145Z,996.9
2023-02-22T12:05:00.341Z,996.87
2023-02-22T12:10:00.142Z,996.97
2023-02-22T12:15:00.094Z,996.95
2023-02-22T12:20:00.158Z,996.89
2023-02-22T12:25:08.928Z,996.86
2023-02-22T12:30:00.165Z,996.78
2023-02-22T12:35:00.158Z,996.84
2023-02-22T12:40:00.126Z,996.84
2023-02-22T12:45:00.163Z,996.88
2023-02-22T12:50:00.128Z,996.75
2023-02-22T12:55:00.119Z,996.69
2023-02-22T13:00:00.123Z,996.6
2023-02-22T13:05:00.177Z,996.59
2023-02-22T13:10:00.113Z,996.53
2023-02-22T13:15:00.140Z,996.52
2023-02-22T13:20:00.147Z,996.46
2023-02-22T13:25:00.132Z,996.46
2023-02-22T13:30:00.134Z,996.41
2023-02-22T13:35:00.165Z,996.36
2023-02-22T13:40:00.173Z,996.37
2023-02-22T13:45:00.127Z,996.38
2023-02-22T13:50:00.098Z,996.39
2023-02-22T13:55:00.100Z,996.41
2023-02-22T14:00:00.149Z,996.39
2023-02-22T14:05:00.254Z,996.4
2023-02-22T14:10:00.173Z,996.41
2023-02-22T14:15:00.125Z,996.27
2023-02-22T14:20:00.172Z,996.25
2023-02-22T14:25:00.135Z,996.28
2023-02-22T14:30:00.124Z,996.16
2023-02-22T14:35:00.105Z,996.24
2023-02-22T14:40:00.136Z,996.18
2023-02-22T14:45:00.121Z,996.04
2023-02-22T14:50:00.162Z,995.98
2023-02-22T14:55:00.117Z,995.92
2023-02-22T15:00:00.153Z,995.88
2023-02-22T15:05:00.356Z,995.93
2023-02-22T15:10:00.146Z,995.91
2023-02-22T15:15:00.106Z,995.93
2023-02-22T15:20:00.121Z,995.82
2023-02-22T15:25:00.179Z,995.81
2023-02-22T15:30:00.171Z,995.85
2023-02-22T15:35:00.125Z,995.81
2023-02-22T15:40:00.154Z,995.82
2023-02-22T15:45:00.123Z,995.75
2023-02-22T15:50:00.224Z,995.77
2023-02-22T15:55:00.126Z,995.71
2023-02-22T16:00:00.207Z,995.77
2023-02-22T16:05:00.637Z,995.68
2023-02-22T16:10:00.242Z,995.57
2023-02-22T16:15:00.123Z,996.34
2023-02-22T16:20:00.122Z,995.74
2023-02-22T16:25:00.146Z,995.7
2023-02-22T16:30:00.127Z,995.76
2023-02-22T16:35:00.172Z,995.77
2023-02-22T16:40:00.154Z,995.8
2023-02-22T16:45:00.145Z,995.73
2023-02-22T16:50:00.165Z,995.74
2023-02-22T16:55:00.124Z,995.64
2023-02-22T17:00:00.219Z,995.7
2023-02-22T17:05:00.155Z,995.73
2023-02-22T17:10:00.204Z,995.66
2023-02-22T17:15:00.127Z,995.68
2023-02-22T17:20:00.158Z,995.62
2023-02-22T17:25:00.130Z,995.71
2023-02-22T17:30:00.134Z,995.68
2023-02-22T17:35:00.113Z,995.67
2023-02-22T17:40:00.118Z,995.72
2023-02-22T17:45:00.149Z,995.66
2023-02-22T17:50:00.116Z,995.57
2023-02-22T17:55:00.141Z,995.53
2023-02-22T18:00:00.137Z,995.47
2023-02-22T18:05:00.196Z,995.43
2023-02-22T18:10:00.104Z,995.47
2023-02-22T18:15:00.121Z,995.41
2023-02-22T18:20:00.094Z,995.41
2023-02-22T18:25:01.881Z,995.4
2023-02-22T18:30:00.129Z,995.33
2023-02-22T18:35:00.122Z,995.32
2023-02-22T18:40:00.109Z,995.38
2023-02-22T18:45:00.154Z,995.25
2023-02-22T18:50:00.111Z,995.16
2023-02-22T18:55:00.155Z,995.22
2023-02-22T19:00:00.147Z,995.08
2023-02-22T19:05:00.124Z,995.01
2023-02-22T19:10:00.130Z,994.99
2023-02-22T19:15:00.142Z,994.94
2023-02-22T19:20:00.132Z,994.96
2023-02-22T19:25:00.153Z,994.85
2023-02-22T19:30:00.165Z,994.9
2023-02-22T19:35:00.121Z,994.83
2023-02-22T19:40:00.154Z,994.83
2023-02-22T19:45:00.128Z,994.76
2023-02-22T19:50:00.304Z,994.78
2023-02-22T19:55:00.149Z,994.79
2023-02-22T20:00:00.145Z,994.75
2023-02-22T20:05:00.129Z,994.77
2023-02-22T20:10:00.135Z,995.52
2023-02-22T20:15:00.104Z,994.86
2023-02-22T20:20:00.146Z,994.69
2023-02-22T20:25:00.137Z,994.83
2023-02-22T20:30:00.122Z,994.75
2023-02-22T20:35:00.116Z,994.81
2023-02-22T20:40:00.115Z,994.8
2023-02-22T20:45:00.137Z,994.79
2023-02-22T20:50:00.114Z,994.74
2023-02-22T20:55:00.103Z,994.73
2023-02-22T21:00:00.113Z,994.76
2023-02-22T21:05:00.232Z,994.79
2023-02-22T21:10:00.145Z,994.77
2023-02-22T21:15:00.154Z,994.91
2023-02-22T21:20:00.147Z,994.87
2023-02-22T21:25:00.150Z,995.48
2023-02-22T21:30:00.136Z,995.41
2023-02-22T21:35:00.121Z,995.42
2023-02-22T21:40:00.112Z,995.39
2023-02-22T21:45:00.157Z,995.41
2023-02-22T21:50:00.116Z,995.39
2023-02-22T21:55:00.129Z,995.34
2023-02-22T22:00:00.114Z,995.44
2023-02-22T22:05:00.128Z,995.4
2023-02-22T22:10:00.106Z,995.32
2023-02-22T22:15:00.152Z,995.45
2023-02-22T22:20:00.124Z,995.4
2023-02-22T22:25:00.174Z,995.37
2023-02-22T22:30:00.166Z,995.43
2023-02-22T22:35:00.124Z,995.33
2023-02-22T22:40:00.127Z,995.27
2023-02-22T22:45:00.135Z,995.37
2023-02-22T22:50:00.094Z,995.3
2023-02-22T22:55:00.094Z,995.39
2023-02-22T23:00:00.219Z,995.36
2023-02-22T23:05:00.134Z,995.36
2023-02-22T23:10:00.109Z,995.39
2023-02-22T23:15:00.105Z,995.38
2023-02-22T23:20:00.113Z,995.32
2023-02-22T23:25:00.190Z,995.43
2023-02-22T23:30:00.129Z,995.42
2023-02-22T23:35:00.113Z,995.41
2023-02-22T23:40:00.105Z,995.35
2023-02-22T23:45:00.144Z,995.39
2023-02-22T23:50:00.103Z,995.33
2023-02-22T23:55:00.105Z,995.35
